sensor_id;sensor_type;location;lat;lon;timestamp;P1;durP1;ratioP1;P2;durP2;ratioP2
21833;SDS011;11079;51.092;3.458;2022-10-31T00:00:22;9.95;;;6.78;;
21833;SDS011;11079;51.092;3.458;2022-10-31T00:02:47;11.18;;;7.82;;
21833;SDS011;11079;51.092;3.458;2022-10-31T00:05:13;10.10;;;6.65;;
21833;SDS011;11079;51.092;3.458;2022-10-31T00:07:39;11.43;;;7.30;;
21833;SDS011;11079;51.092;3.458;2022-10-31T00:10:06;9.50;;;6.65;;
21833;SDS011;11079;51.092;3.458;2022-10-31T00:12:32;10.43;;;7.18;;
21833;SDS011;11079;51.092;3.458;2022-10-31T00:14:58;11.07;;;6.90;;
21833;SDS011;11079;51.092;3.458;2022-10-31T00:17:25;9.40;;;7.20;;
21833;SDS011;11079;51.092;3.458;2022-10-31T00:19:51;11.30;;;6.88;;
21833;SDS011;11079;51.092;3.458;2022-10-31T00:22:16;12.80;;;7.60;;
21833;SDS011;11079;51.092;3.458;2022-10-31T00:24:43;11.00;;;7.53;;
21833;SDS011;11079;51.092;3.458;2022-10-31T00:27:08;11.48;;;7.15;;
21833;SDS011;11079;51.092;3.458;2022-10-31T00:29:34;13.70;;;7.90;;
21833;SDS011;11079;51.092;3.458;2022-10-31T00:31:59;9.95;;;7.70;;
21833;SDS011;11079;51.092;3.458;2022-10-31T00:34:25;9.50;;;7.20;;
21833;SDS011;11079;51.092;3.458;2022-10-31T00:36:51;12.93;;;7.15;;
21833;SDS011;11079;51.092;3.458;2022-10-31T00:39:16;9.70;;;7.30;;
21833;SDS011;11079;51.092;3.458;2022-10-31T00:41:42;11.10;;;7.90;;
21833;SDS011;11079;51.092;3.458;2022-10-31T00:44:09;13.55;;;7.50;;
21833;SDS011;11079;51.092;3.458;2022-10-31T00:46:37;11.70;;;7.32;;
21833;SDS011;11079;51.092;3.458;2022-10-31T00:49:05;11.13;;;7.93;;
21833;SDS011;11079;51.092;3.458;2022-10-31T00:51:32;12.02;;;8.30;;
21833;SDS011;11079;51.092;3.458;2022-10-31T00:53:58;13.02;;;8.48;;
21833;SDS011;11079;51.092;3.458;2022-10-31T00:56:24;14.50;;;7.90;;
21833;SDS011;11079;51.092;3.458;2022-10-31T00:58:50;10.98;;;8.60;;
21833;SDS011;11079;51.092;3.458;2022-10-31T01:01:16;12.98;;;8.15;;
21833;SDS011;11079;51.092;3.458;2022-10-31T01:03:41;11.85;;;7.57;;
21833;SDS011;11079;51.092;3.458;2022-10-31T01:06:12;12.45;;;8.00;;
21833;SDS011;11079;51.092;3.458;2022-10-31T01:08:38;13.23;;;7.10;;
21833;SDS011;11079;51.092;3.458;2022-10-31T01:11:07;9.10;;;6.95;;
21833;SDS011;11079;51.092;3.458;2022-10-31T01:13:33;9.32;;;7.68;;
21833;SDS011;11079;51.092;3.458;2022-10-31T01:16:00;12.68;;;6.78;;
21833;SDS011;11079;51.092;3.458;2022-10-31T01:18:28;9.65;;;7.15;;
21833;SDS011;11079;51.092;3.458;2022-10-31T01:20:58;8.73;;;7.28;;
21833;SDS011;11079;51.092;3.458;2022-10-31T01:23:26;10.75;;;7.60;;
21833;SDS011;11079;51.092;3.458;2022-10-31T01:26:00;11.63;;;6.70;;
21833;SDS011;11079;51.092;3.458;2022-10-31T01:28:25;10.77;;;6.38;;
21833;SDS011;11079;51.092;3.458;2022-10-31T01:30:51;8.68;;;6.32;;
21833;SDS011;11079;51.092;3.458;2022-10-31T01:33:17;7.07;;;5.30;;
21833;SDS011;11079;51.092;3.458;2022-10-31T01:35:43;7.53;;;5.38;;
21833;SDS011;11079;51.092;3.458;2022-10-31T01:38:08;10.27;;;6.95;;
21833;SDS011;11079;51.092;3.458;2022-10-31T01:40:34;12.40;;;7.30;;
21833;SDS011;11079;51.092;3.458;2022-10-31T01:43:00;10.95;;;8.32;;
21833;SDS011;11079;51.092;3.458;2022-10-31T01:45:26;12.32;;;7.30;;
21833;SDS011;11079;51.092;3.458;2022-10-31T01:47:53;12.82;;;7.95;;
21833;SDS011;11079;51.092;3.458;2022-10-31T01:50:23;9.95;;;7.47;;
21833;SDS011;11079;51.092;3.458;2022-10-31T01:52:57;11.88;;;8.00;;
21833;SDS011;11079;51.092;3.458;2022-10-31T01:55:29;9.73;;;7.35;;
21833;SDS011;11079;51.092;3.458;2022-10-31T01:58:02;14.55;;;8.75;;
21833;SDS011;11079;51.092;3.458;2022-10-31T02:00:32;12.15;;;7.93;;
21833;SDS011;11079;51.092;3.458;2022-10-31T02:02:58;13.05;;;8.25;;
21833;SDS011;11079;51.092;3.458;2022-10-31T02:05:32;15.38;;;8.60;;
21833;SDS011;11079;51.092;3.458;2022-10-31T02:10:54;14.13;;;9.63;;
21833;SDS011;11079;51.092;3.458;2022-10-31T02:13:21;15.20;;;8.77;;
21833;SDS011;11079;51.092;3.458;2022-10-31T02:15:51;13.15;;;9.07;;
21833;SDS011;11079;51.092;3.458;2022-10-31T02:18:19;14.52;;;8.55;;
21833;SDS011;11079;51.092;3.458;2022-10-31T02:35:35;12.27;;;8.82;;
21833;SDS011;11079;51.092;3.458;2022-10-31T02:42:08;16.83;;;8.75;;
21833;SDS011;11079;51.092;3.458;2022-10-31T02:47:16;14.30;;;9.15;;
21833;SDS011;11079;51.092;3.458;2022-10-31T02:49:59;14.32;;;9.40;;
21833;SDS011;11079;51.092;3.458;2022-10-31T02:52:33;12.32;;;8.27;;
21833;SDS011;11079;51.092;3.458;2022-10-31T02:55:39;15.10;;;9.32;;
21833;SDS011;11079;51.092;3.458;2022-10-31T02:58:00;17.60;;;9.57;;
21833;SDS011;11079;51.092;3.458;2022-10-31T03:07:03;13.40;;;8.63;;
21833;SDS011;11079;51.092;3.458;2022-10-31T03:09:59;11.75;;;8.10;;
21833;SDS011;11079;51.092;3.458;2022-10-31T03:15:50;14.82;;;8.38;;
21833;SDS011;11079;51.092;3.458;2022-10-31T03:18:28;15.48;;;9.35;;
21833;SDS011;11079;51.092;3.458;2022-10-31T03:21:07;12.70;;;8.70;;
21833;SDS011;11079;51.092;3.458;2022-10-31T03:23:42;13.13;;;8.73;;
21833;SDS011;11079;51.092;3.458;2022-10-31T03:26:10;14.75;;;7.97;;
21833;SDS011;11079;51.092;3.458;2022-10-31T03:28:39;15.20;;;8.18;;
21833;SDS011;11079;51.092;3.458;2022-10-31T03:31:11;14.70;;;9.05;;
21833;SDS011;11079;51.092;3.458;2022-10-31T03:33:41;12.63;;;8.95;;
21833;SDS011;11079;51.092;3.458;2022-10-31T03:36:08;15.15;;;8.95;;
21833;SDS011;11079;51.092;3.458;2022-10-31T03:38:36;15.02;;;8.00;;
21833;SDS011;11079;51.092;3.458;2022-10-31T03:41:05;13.38;;;8.45;;
21833;SDS011;11079;51.092;3.458;2022-10-31T03:43:38;12.45;;;8.68;;
21833;SDS011;11079;51.092;3.458;2022-10-31T03:46:08;11.88;;;8.50;;
21833;SDS011;11079;51.092;3.458;2022-10-31T03:48:35;9.88;;;8.20;;
21833;SDS011;11079;51.092;3.458;2022-10-31T03:51:07;12.00;;;8.60;;
21833;SDS011;11079;51.092;3.458;2022-10-31T03:53:45;12.18;;;8.48;;
21833;SDS011;11079;51.092;3.458;2022-10-31T03:56:36;13.05;;;8.50;;
21833;SDS011;11079;51.092;3.458;2022-10-31T03:59:37;15.77;;;10.98;;
21833;SDS011;11079;51.092;3.458;2022-10-31T04:02:32;12.65;;;8.82;;
21833;SDS011;11079;51.092;3.458;2022-10-31T04:05:40;14.70;;;8.77;;
21833;SDS011;11079;51.092;3.458;2022-10-31T04:08:14;14.13;;;8.68;;
21833;SDS011;11079;51.092;3.458;2022-10-31T04:11:20;12.82;;;8.40;;
21833;SDS011;11079;51.092;3.458;2022-10-31T04:13:48;12.73;;;8.30;;
21833;SDS011;11079;51.092;3.458;2022-10-31T04:16:16;13.95;;;8.30;;
21833;SDS011;11079;51.092;3.458;2022-10-31T04:18:48;16.42;;;7.93;;
21833;SDS011;11079;51.092;3.458;2022-10-31T04:21:13;14.32;;;7.72;;
21833;SDS011;11079;51.092;3.458;2022-10-31T04:23:39;14.32;;;8.55;;
21833;SDS011;11079;51.092;3.458;2022-10-31T04:26:05;16.42;;;8.35;;
21833;SDS011;11079;51.092;3.458;2022-10-31T04:28:39;11.50;;;7.85;;
21833;SDS011;11079;51.092;3.458;2022-10-31T04:31:05;11.85;;;7.40;;
21833;SDS011;11079;51.092;3.458;2022-10-31T04:34:07;14.98;;;8.02;;
21833;SDS011;11079;51.092;3.458;2022-10-31T04:36:53;17.60;;;8.57;;
21833;SDS011;11079;51.092;3.458;2022-10-31T04:39:41;13.85;;;7.88;;
21833;SDS011;11079;51.092;3.458;2022-10-31T04:42:07;13.30;;;8.25;;
21833;SDS011;11079;51.092;3.458;2022-10-31T04:44:33;14.68;;;8.93;;
21833;SDS011;11079;51.092;3.458;2022-10-31T04:46:59;14.50;;;9.32;;
21833;SDS011;11079;51.092;3.458;2022-10-31T04:49:27;13.70;;;9.15;;
21833;SDS011;11079;51.092;3.458;2022-10-31T04:51:53;14.88;;;9.50;;
21833;SDS011;11079;51.092;3.458;2022-10-31T04:54:18;14.75;;;8.93;;
21833;SDS011;11079;51.092;3.458;2022-10-31T04:56:45;12.15;;;8.40;;
21833;SDS011;11079;51.092;3.458;2022-10-31T04:59:10;13.20;;;8.95;;
21833;SDS011;11079;51.092;3.458;2022-10-31T05:01:36;16.08;;;8.40;;
21833;SDS011;11079;51.092;3.458;2022-10-31T05:04:02;12.45;;;8.43;;
21833;SDS011;11079;51.092;3.458;2022-10-31T05:06:27;16.60;;;9.32;;
21833;SDS011;11079;51.092;3.458;2022-10-31T05:08:53;19.27;;;9.65;;
21833;SDS011;11079;51.092;3.458;2022-10-31T05:11:19;97.55;;;14.57;;
21833;SDS011;11079;51.092;3.458;2022-10-31T05:13:44;21.50;;;8.88;;
21833;SDS011;11079;51.092;3.458;2022-10-31T05:16:10;15.35;;;8.90;;
21833;SDS011;11079;51.092;3.458;2022-10-31T05:18:35;16.33;;;9.50;;
21833;SDS011;11079;51.092;3.458;2022-10-31T05:21:04;26.75;;;10.05;;
21833;SDS011;11079;51.092;3.458;2022-10-31T05:23:30;32.70;;;10.90;;
21833;SDS011;11079;51.092;3.458;2022-10-31T05:25:55;18.33;;;9.38;;
21833;SDS011;11079;51.092;3.458;2022-10-31T05:28:21;24.85;;;9.50;;
21833;SDS011;11079;51.092;3.458;2022-10-31T05:30:48;18.02;;;9.18;;
21833;SDS011;11079;51.092;3.458;2022-10-31T05:33:14;16.00;;;8.02;;
21833;SDS011;11079;51.092;3.458;2022-10-31T05:35:40;14.32;;;8.70;;
21833;SDS011;11079;51.092;3.458;2022-10-31T05:38:06;16.23;;;8.98;;
21833;SDS011;11079;51.092;3.458;2022-10-31T05:40:31;17.13;;;9.10;;
21833;SDS011;11079;51.092;3.458;2022-10-31T05:42:57;17.90;;;9.32;;
21833;SDS011;11079;51.092;3.458;2022-10-31T05:45:24;19.08;;;8.95;;
21833;SDS011;11079;51.092;3.458;2022-10-31T05:47:50;17.25;;;10.55;;
21833;SDS011;11079;51.092;3.458;2022-10-31T05:50:21;19.38;;;10.95;;
21833;SDS011;11079;51.092;3.458;2022-10-31T05:52:56;22.55;;;12.45;;
21833;SDS011;11079;51.092;3.458;2022-10-31T05:55:23;19.80;;;12.93;;
21833;SDS011;11079;51.092;3.458;2022-10-31T05:57:50;19.02;;;12.27;;
21833;SDS011;11079;51.092;3.458;2022-10-31T06:00:17;24.27;;;14.50;;
21833;SDS011;11079;51.092;3.458;2022-10-31T06:02:43;24.67;;;14.43;;
21833;SDS011;11079;51.092;3.458;2022-10-31T06:05:09;21.17;;;13.73;;
21833;SDS011;11079;51.092;3.458;2022-10-31T06:07:35;26.45;;;14.88;;
21833;SDS011;11079;51.092;3.458;2022-10-31T06:10:01;25.13;;;15.40;;
21833;SDS011;11079;51.092;3.458;2022-10-31T06:12:29;24.00;;;15.07;;
21833;SDS011;11079;51.092;3.458;2022-10-31T06:15:07;25.45;;;15.38;;
21833;SDS011;11079;51.092;3.458;2022-10-31T06:18:05;28.55;;;16.10;;
21833;SDS011;11079;51.092;3.458;2022-10-31T06:20:57;29.55;;;15.95;;
21833;SDS011;11079;51.092;3.458;2022-10-31T06:23:44;29.08;;;15.90;;
21833;SDS011;11079;51.092;3.458;2022-10-31T06:26:37;36.78;;;20.20;;
21833;SDS011;11079;51.092;3.458;2022-10-31T06:29:16;36.80;;;19.42;;
21833;SDS011;11079;51.092;3.458;2022-10-31T06:31:41;31.40;;;19.17;;
21833;SDS011;11079;51.092;3.458;2022-10-31T06:34:10;35.25;;;19.50;;
21833;SDS011;11079;51.092;3.458;2022-10-31T06:36:36;26.95;;;17.27;;
21833;SDS011;11079;51.092;3.458;2022-10-31T06:39:01;31.38;;;16.40;;
21833;SDS011;11079;51.092;3.458;2022-10-31T06:41:27;34.45;;;18.15;;
21833;SDS011;11079;51.092;3.458;2022-10-31T06:43:52;24.55;;;15.65;;
21833;SDS011;11079;51.092;3.458;2022-10-31T06:46:18;29.27;;;16.08;;
21833;SDS011;11079;51.092;3.458;2022-10-31T06:51:25;30.13;;;16.90;;
21833;SDS011;11079;51.092;3.458;2022-10-31T06:53:53;26.90;;;15.80;;
21833;SDS011;11079;51.092;3.458;2022-10-31T06:59:11;27.13;;;14.90;;
21833;SDS011;11079;51.092;3.458;2022-10-31T07:01:37;20.98;;;13.52;;
21833;SDS011;11079;51.092;3.458;2022-10-31T07:04:04;19.13;;;11.77;;
21833;SDS011;11079;51.092;3.458;2022-10-31T07:06:30;20.25;;;14.45;;
21833;SDS011;11079;51.092;3.458;2022-10-31T07:08:55;21.02;;;12.80;;
21833;SDS011;11079;51.092;3.458;2022-10-31T07:11:21;17.67;;;12.05;;
21833;SDS011;11079;51.092;3.458;2022-10-31T07:13:47;17.05;;;11.80;;
21833;SDS011;11079;51.092;3.458;2022-10-31T07:16:13;17.60;;;11.73;;
21833;SDS011;11079;51.092;3.458;2022-10-31T07:18:40;15.20;;;10.88;;
21833;SDS011;11079;51.092;3.458;2022-10-31T07:21:05;23.67;;;12.23;;
21833;SDS011;11079;51.092;3.458;2022-10-31T07:23:34;21.73;;;13.35;;
21833;SDS011;11079;51.092;3.458;2022-10-31T07:25:59;20.92;;;12.63;;
21833;SDS011;11079;51.092;3.458;2022-10-31T07:28:25;23.27;;;13.20;;
21833;SDS011;11079;51.092;3.458;2022-10-31T07:30:52;16.73;;;11.23;;
21833;SDS011;11079;51.092;3.458;2022-10-31T07:33:34;16.73;;;11.52;;
21833;SDS011;11079;51.092;3.458;2022-10-31T07:36:00;16.17;;;11.65;;
21833;SDS011;11079;51.092;3.458;2022-10-31T07:38:25;20.67;;;11.80;;
21833;SDS011;11079;51.092;3.458;2022-10-31T07:40:51;14.45;;;10.27;;
21833;SDS011;11079;51.092;3.458;2022-10-31T07:43:19;15.30;;;9.27;;
21833;SDS011;11079;51.092;3.458;2022-10-31T07:45:49;12.18;;;9.05;;
21833;SDS011;11079;51.092;3.458;2022-10-31T07:48:18;13.93;;;8.23;;
21833;SDS011;11079;51.092;3.458;2022-10-31T07:50:45;12.77;;;8.02;;
21833;SDS011;11079;51.092;3.458;2022-10-31T07:53:12;14.10;;;7.20;;
21833;SDS011;11079;51.092;3.458;2022-10-31T07:55:42;11.80;;;7.68;;
21833;SDS011;11079;51.092;3.458;2022-10-31T07:58:16;11.32;;;7.32;;
21833;SDS011;11079;51.092;3.458;2022-10-31T08:00:43;11.43;;;7.78;;
21833;SDS011;11079;51.092;3.458;2022-10-31T08:03:11;12.48;;;7.10;;
21833;SDS011;11079;51.092;3.458;2022-10-31T08:05:39;13.52;;;8.25;;
21833;SDS011;11079;51.092;3.458;2022-10-31T08:08:06;12.30;;;8.77;;
21833;SDS011;11079;51.092;3.458;2022-10-31T08:10:32;13.40;;;8.98;;
21833;SDS011;11079;51.092;3.458;2022-10-31T08:13:00;12.77;;;8.70;;
21833;SDS011;11079;51.092;3.458;2022-10-31T08:15:29;12.65;;;8.18;;
21833;SDS011;11079;51.092;3.458;2022-10-31T08:17:56;10.80;;;8.30;;
21833;SDS011;11079;51.092;3.458;2022-10-31T08:20:22;14.77;;;8.07;;
21833;SDS011;11079;51.092;3.458;2022-10-31T08:22:58;12.73;;;8.98;;
21833;SDS011;11079;51.092;3.458;2022-10-31T08:25:26;10.93;;;8.32;;
21833;SDS011;11079;51.092;3.458;2022-10-31T08:27:58;11.60;;;8.52;;
21833;SDS011;11079;51.092;3.458;2022-10-31T08:30:28;11.63;;;8.57;;
21833;SDS011;11079;51.092;3.458;2022-10-31T08:33:25;14.55;;;8.50;;
21833;SDS011;11079;51.092;3.458;2022-10-31T08:36:28;10.93;;;7.03;;
21833;SDS011;11079;51.092;3.458;2022-10-31T08:39:14;11.75;;;6.63;;
21833;SDS011;11079;51.092;3.458;2022-10-31T08:41:40;10.07;;;7.00;;
21833;SDS011;11079;51.092;3.458;2022-10-31T08:47:46;12.10;;;7.78;;
21833;SDS011;11079;51.092;3.458;2022-10-31T08:50:50;10.50;;;7.75;;
21833;SDS011;11079;51.092;3.458;2022-10-31T08:53:37;20.80;;;17.55;;
21833;SDS011;11079;51.092;3.458;2022-10-31T09:08:43;14.02;;;9.38;;
21833;SDS011;11079;51.092;3.458;2022-10-31T09:14:46;14.65;;;10.40;;
21833;SDS011;11079;51.092;3.458;2022-10-31T09:17:49;14.02;;;11.48;;
21833;SDS011;11079;51.092;3.458;2022-10-31T09:20:39;17.33;;;13.38;;
21833;SDS011;11079;51.092;3.458;2022-10-31T09:23:49;18.77;;;11.73;;
21833;SDS011;11079;51.092;3.458;2022-10-31T09:26:36;18.73;;;14.27;;
21833;SDS011;11079;51.092;3.458;2022-10-31T09:29:18;15.85;;;12.02;;
21833;SDS011;11079;51.092;3.458;2022-10-31T09:32:02;15.93;;;12.65;;
21833;SDS011;11079;51.092;3.458;2022-10-31T09:34:30;14.13;;;10.88;;
21833;SDS011;11079;51.092;3.458;2022-10-31T09:38:06;17.08;;;10.85;;
21833;SDS011;11079;51.092;3.458;2022-10-31T09:40:41;15.73;;;11.43;;
21833;SDS011;11079;51.092;3.458;2022-10-31T09:50:07;15.32;;;11.18;;
21833;SDS011;11079;51.092;3.458;2022-10-31T09:52:40;15.43;;;11.02;;
21833;SDS011;11079;51.092;3.458;2022-10-31T09:55:19;14.68;;;10.27;;
21833;SDS011;11079;51.092;3.458;2022-10-31T09:57:51;14.00;;;9.77;;
21833;SDS011;11079;51.092;3.458;2022-10-31T10:00:19;12.85;;;9.63;;
21833;SDS011;11079;51.092;3.458;2022-10-31T10:02:47;13.30;;;9.43;;
21833;SDS011;11079;51.092;3.458;2022-10-31T10:06:04;13.50;;;8.93;;
21833;SDS011;11079;51.092;3.458;2022-10-31T10:08:51;13.52;;;8.15;;
21833;SDS011;11079;51.092;3.458;2022-10-31T10:11:31;11.98;;;8.73;;
21833;SDS011;11079;51.092;3.458;2022-10-31T10:23:43;17.30;;;10.88;;
21833;SDS011;11079;51.092;3.458;2022-10-31T10:26:34;10.85;;;7.72;;
21833;SDS011;11079;51.092;3.458;2022-10-31T10:29:14;15.52;;;7.75;;
21833;SDS011;11079;51.092;3.458;2022-10-31T10:31:51;10.65;;;8.57;;
21833;SDS011;11079;51.092;3.458;2022-10-31T10:34:40;14.88;;;9.93;;
21833;SDS011;11079;51.092;3.458;2022-10-31T10:37:18;11.20;;;7.90;;
21833;SDS011;11079;51.092;3.458;2022-10-31T10:39:53;13.02;;;8.40;;
21833;SDS011;11079;51.092;3.458;2022-10-31T10:42:25;13.15;;;7.82;;
21833;SDS011;11079;51.092;3.458;2022-10-31T10:45:19;11.52;;;8.27;;
21833;SDS011;11079;51.092;3.458;2022-10-31T10:48:30;12.50;;;8.55;;
21833;SDS011;11079;51.092;3.458;2022-10-31T10:51:06;11.57;;;7.47;;
21833;SDS011;11079;51.092;3.458;2022-10-31T11:00:48;15.10;;;7.80;;
21833;SDS011;11079;51.092;3.458;2022-10-31T11:10:33;12.35;;;7.43;;
21833;SDS011;11079;51.092;3.458;2022-10-31T11:15:49;13.75;;;6.93;;
21833;SDS011;11079;51.092;3.458;2022-10-31T11:18:19;10.98;;;7.10;;
21833;SDS011;11079;51.092;3.458;2022-10-31T11:20:51;12.90;;;8.35;;
21833;SDS011;11079;51.092;3.458;2022-10-31T11:23:19;11.18;;;6.97;;
21833;SDS011;11079;51.092;3.458;2022-10-31T11:25:54;11.30;;;6.72;;
21833;SDS011;11079;51.092;3.458;2022-10-31T11:28:23;8.77;;;6.38;;
21833;SDS011;11079;51.092;3.458;2022-10-31T11:30:53;10.88;;;7.00;;
21833;SDS011;11079;51.092;3.458;2022-10-31T11:33:29;9.52;;;6.30;;
21833;SDS011;11079;51.092;3.458;2022-10-31T11:36:13;8.55;;;6.65;;
21833;SDS011;11079;51.092;3.458;2022-10-31T11:38:47;10.02;;;7.20;;
21833;SDS011;11079;51.092;3.458;2022-10-31T11:41:18;14.85;;;13.35;;
21833;SDS011;11079;51.092;3.458;2022-10-31T11:43:57;11.40;;;7.43;;
21833;SDS011;11079;51.092;3.458;2022-10-31T11:49:40;10.43;;;6.72;;
21833;SDS011;11079;51.092;3.458;2022-10-31T11:52:17;9.80;;;5.57;;
21833;SDS011;11079;51.092;3.458;2022-10-31T11:57:25;8.35;;;6.80;;
21833;SDS011;11079;51.092;3.458;2022-10-31T11:59:53;9.80;;;6.18;;
21833;SDS011;11079;51.092;3.458;2022-10-31T12:02:21;11.88;;;6.10;;
21833;SDS011;11079;51.092;3.458;2022-10-31T12:04:49;11.00;;;7.82;;
21833;SDS011;11079;51.092;3.458;2022-10-31T12:07:23;10.77;;;6.15;;
21833;SDS011;11079;51.092;3.458;2022-10-31T12:09:49;13.88;;;6.50;;
21833;SDS011;11079;51.092;3.458;2022-10-31T12:17:21;13.02;;;6.97;;
21833;SDS011;11079;51.092;3.458;2022-10-31T12:22:47;10.55;;;7.53;;
21833;SDS011;11079;51.092;3.458;2022-10-31T12:25:38;13.35;;;7.60;;
21833;SDS011;11079;51.092;3.458;2022-10-31T12:31:33;13.63;;;7.85;;
21833;SDS011;11079;51.092;3.458;2022-10-31T12:37:02;10.25;;;7.30;;
21833;SDS011;11079;51.092;3.458;2022-10-31T12:45:00;13.00;;;8.23;;
21833;SDS011;11079;51.092;3.458;2022-10-31T12:50:47;13.43;;;8.13;;
21833;SDS011;11079;51.092;3.458;2022-10-31T12:58:46;12.05;;;8.40;;
21833;SDS011;11079;51.092;3.458;2022-10-31T13:04:19;14.65;;;7.97;;
21833;SDS011;11079;51.092;3.458;2022-10-31T13:06:55;13.07;;;8.88;;
21833;SDS011;11079;51.092;3.458;2022-10-31T13:09:38;13.00;;;9.23;;
21833;SDS011;11079;51.092;3.458;2022-10-31T13:12:15;19.65;;;9.43;;
21833;SDS011;11079;51.092;3.458;2022-10-31T13:14:49;17.45;;;9.68;;
21833;SDS011;11079;51.092;3.458;2022-10-31T13:17:37;13.00;;;9.20;;
21833;SDS011;11079;51.092;3.458;2022-10-31T13:20:19;17.08;;;9.77;;
21833;SDS011;11079;51.092;3.458;2022-10-31T13:23:12;13.50;;;9.45;;
21833;SDS011;11079;51.092;3.458;2022-10-31T13:25:49;11.95;;;9.60;;
21833;SDS011;11079;51.092;3.458;2022-10-31T13:31:01;16.80;;;9.70;;
21833;SDS011;11079;51.092;3.458;2022-10-31T13:39:16;16.63;;;10.40;;
21833;SDS011;11079;51.092;3.458;2022-10-31T13:42:04;15.35;;;10.55;;
21833;SDS011;11079;51.092;3.458;2022-10-31T13:44:40;15.82;;;10.50;;
21833;SDS011;11079;51.092;3.458;2022-10-31T13:47:24;19.98;;;10.68;;
21833;SDS011;11079;51.092;3.458;2022-10-31T13:52:45;16.38;;;10.05;;
21833;SDS011;11079;51.092;3.458;2022-10-31T13:58:16;17.83;;;10.55;;
21833;SDS011;11079;51.092;3.458;2022-10-31T14:03:40;12.80;;;10.07;;
21833;SDS011;11079;51.092;3.458;2022-10-31T14:06:09;18.63;;;11.90;;
21833;SDS011;11079;51.092;3.458;2022-10-31T14:08:39;20.25;;;11.60;;
21833;SDS011;11079;51.092;3.458;2022-10-31T14:11:16;21.02;;;10.90;;
21833;SDS011;11079;51.092;3.458;2022-10-31T14:13:49;17.15;;;10.75;;
21833;SDS011;11079;51.092;3.458;2022-10-31T14:16:28;15.55;;;10.35;;
21833;SDS011;11079;51.092;3.458;2022-10-31T14:19:06;16.63;;;11.68;;
21833;SDS011;11079;51.092;3.458;2022-10-31T14:21:37;16.52;;;10.90;;
21833;SDS011;11079;51.092;3.458;2022-10-31T14:29:26;16.98;;;11.05;;
21833;SDS011;11079;51.092;3.458;2022-10-31T14:34:43;14.43;;;10.90;;
21833;SDS011;11079;51.092;3.458;2022-10-31T14:37:27;16.10;;;10.82;;
21833;SDS011;11079;51.092;3.458;2022-10-31T14:51:22;18.83;;;11.88;;
21833;SDS011;11079;51.092;3.458;2022-10-31T14:53:50;24.25;;;11.40;;
21833;SDS011;11079;51.092;3.458;2022-10-31T14:56:26;21.80;;;12.10;;
21833;SDS011;11079;51.092;3.458;2022-10-31T14:58:55;20.13;;;11.65;;
21833;SDS011;11079;51.092;3.458;2022-10-31T15:01:34;18.65;;;11.68;;
21833;SDS011;11079;51.092;3.458;2022-10-31T15:04:18;20.65;;;11.60;;
21833;SDS011;11079;51.092;3.458;2022-10-31T15:06:50;23.83;;;12.80;;
21833;SDS011;11079;51.092;3.458;2022-10-31T15:09:29;19.33;;;12.15;;
21833;SDS011;11079;51.092;3.458;2022-10-31T15:12:00;19.67;;;12.60;;
21833;SDS011;11079;51.092;3.458;2022-10-31T15:14:39;21.80;;;11.98;;
21833;SDS011;11079;51.092;3.458;2022-10-31T15:17:08;17.10;;;12.77;;
21833;SDS011;11079;51.092;3.458;2022-10-31T15:19:36;20.80;;;13.50;;
21833;SDS011;11079;51.092;3.458;2022-10-31T15:22:02;19.00;;;12.88;;
21833;SDS011;11079;51.092;3.458;2022-10-31T15:24:38;19.85;;;12.57;;
21833;SDS011;11079;51.092;3.458;2022-10-31T15:27:04;20.00;;;12.52;;
21833;SDS011;11079;51.092;3.458;2022-10-31T15:29:30;20.20;;;12.85;;
21833;SDS011;11079;51.092;3.458;2022-10-31T15:31:57;23.48;;;12.48;;
21833;SDS011;11079;51.092;3.458;2022-10-31T15:36:56;22.50;;;13.90;;
21833;SDS011;11079;51.092;3.458;2022-10-31T15:39:22;19.58;;;13.25;;
21833;SDS011;11079;51.092;3.458;2022-10-31T15:41:52;24.02;;;14.15;;
21833;SDS011;11079;51.092;3.458;2022-10-31T15:46:57;26.55;;;14.82;;
21833;SDS011;11079;51.092;3.458;2022-10-31T15:49:29;25.20;;;14.18;;
21833;SDS011;11079;51.092;3.458;2022-10-31T15:52:03;23.42;;;14.82;;
21833;SDS011;11079;51.092;3.458;2022-10-31T15:54:46;23.50;;;15.65;;
21833;SDS011;11079;51.092;3.458;2022-10-31T15:57:17;25.52;;;15.30;;
21833;SDS011;11079;51.092;3.458;2022-10-31T15:59:47;22.95;;;16.10;;
21833;SDS011;11079;51.092;3.458;2022-10-31T16:02:14;29.90;;;16.90;;
21833;SDS011;11079;51.092;3.458;2022-10-31T16:05:00;24.30;;;15.40;;
21833;SDS011;11079;51.092;3.458;2022-10-31T16:07:26;22.52;;;16.05;;
21833;SDS011;11079;51.092;3.458;2022-10-31T16:09:55;24.95;;;16.20;;
21833;SDS011;11079;51.092;3.458;2022-10-31T16:12:28;30.08;;;16.40;;
21833;SDS011;11079;51.092;3.458;2022-10-31T16:15:00;25.15;;;16.77;;
21833;SDS011;11079;51.092;3.458;2022-10-31T16:17:26;32.28;;;16.58;;
21833;SDS011;11079;51.092;3.458;2022-10-31T16:22:24;28.45;;;18.20;;
21833;SDS011;11079;51.092;3.458;2022-10-31T16:24:55;26.00;;;16.63;;
21833;SDS011;11079;51.092;3.458;2022-10-31T16:27:31;27.52;;;16.70;;
21833;SDS011;11079;51.092;3.458;2022-10-31T16:30:00;25.33;;;17.50;;
21833;SDS011;11079;51.092;3.458;2022-10-31T16:37:52;28.98;;;17.83;;
21833;SDS011;11079;51.092;3.458;2022-10-31T16:40:19;25.63;;;17.88;;
21833;SDS011;11079;51.092;3.458;2022-10-31T16:42:45;32.28;;;18.35;;
21833;SDS011;11079;51.092;3.458;2022-10-31T16:45:20;29.50;;;17.73;;
21833;SDS011;11079;51.092;3.458;2022-10-31T16:47:48;28.75;;;18.08;;
21833;SDS011;11079;51.092;3.458;2022-10-31T16:50:15;32.08;;;19.33;;
21833;SDS011;11079;51.092;3.458;2022-10-31T16:52:44;27.20;;;18.42;;
21833;SDS011;11079;51.092;3.458;2022-10-31T16:55:12;29.25;;;17.73;;
21833;SDS011;11079;51.092;3.458;2022-10-31T16:57:40;34.38;;;19.55;;
21833;SDS011;11079;51.092;3.458;2022-10-31T17:00:15;31.30;;;20.17;;
21833;SDS011;11079;51.092;3.458;2022-10-31T17:02:49;32.28;;;20.27;;
21833;SDS011;11079;51.092;3.458;2022-10-31T17:05:17;26.88;;;16.92;;
21833;SDS011;11079;51.092;3.458;2022-10-31T17:07:44;27.63;;;16.98;;
21833;SDS011;11079;51.092;3.458;2022-10-31T17:10:11;29.10;;;18.02;;
21833;SDS011;11079;51.092;3.458;2022-10-31T17:12:38;24.42;;;16.73;;
21833;SDS011;11079;51.092;3.458;2022-10-31T17:15:14;24.63;;;16.08;;
21833;SDS011;11079;51.092;3.458;2022-10-31T17:17:45;26.67;;;15.23;;
21833;SDS011;11079;51.092;3.458;2022-10-31T17:20:16;23.95;;;15.55;;
21833;SDS011;11079;51.092;3.458;2022-10-31T17:22:51;24.67;;;14.43;;
21833;SDS011;11079;51.092;3.458;2022-10-31T17:25:18;25.65;;;13.70;;
21833;SDS011;11079;51.092;3.458;2022-10-31T17:27:48;21.60;;;13.55;;
21833;SDS011;11079;51.092;3.458;2022-10-31T17:30:15;24.02;;;12.52;;
21833;SDS011;11079;51.092;3.458;2022-10-31T17:32:42;19.00;;;13.63;;
21833;SDS011;11079;51.092;3.458;2022-10-31T17:35:09;22.20;;;12.80;;
21833;SDS011;11079;51.092;3.458;2022-10-31T17:37:36;17.70;;;11.27;;
21833;SDS011;11079;51.092;3.458;2022-10-31T17:40:02;19.88;;;11.07;;
21833;SDS011;11079;51.092;3.458;2022-10-31T17:42:28;17.20;;;11.18;;
21833;SDS011;11079;51.092;3.458;2022-10-31T17:44:54;19.13;;;11.00;;
21833;SDS011;11079;51.092;3.458;2022-10-31T17:47:20;21.70;;;11.35;;
21833;SDS011;11079;51.092;3.458;2022-10-31T17:49:45;15.45;;;11.23;;
21833;SDS011;11079;51.092;3.458;2022-10-31T17:52:11;18.08;;;10.70;;
21833;SDS011;11079;51.092;3.458;2022-10-31T17:54:36;17.15;;;11.15;;
21833;SDS011;11079;51.092;3.458;2022-10-31T17:57:02;19.48;;;10.75;;
21833;SDS011;11079;51.092;3.458;2022-10-31T17:59:28;15.57;;;11.05;;